Startpagina
METAR-TAF:

METAR-TAF

Vliegvelden :

Aeropuerto Internacional Rodríguez Ballón

Arequipa, Peru

breedte: 16-19S, lengte: 071-33W, hoogte: 2538 m

Actueel weer

Dit bericht is 34 minuten geleden gemaakt, om 23:00 UTC
Weinig wind
Temperatuur 19°C
Vochtigheid 19%
Druk 1026 hPa
Zicht 10 km of meer
geen wolken onder 1500 m en geen cumulonimbus

METAR: SPQU 182300Z 00000KT CAVOK 19/M05 Q1026 NOSIG RMK PP000

Tijdstip: 18:34 (23:34 UTC)

Verwachting

Dit bericht is 6 uur en het 34 minuten geleden gemaakt, om 17:00 UTC
Verwachting geldig van 18 om 18 UTC tot 19 om 18 UTC
Wind 7 kt uit het westen
Zicht 10 km of meer
geen wolken onder 1500 m en geen cumulonimbus
Wijzigt naar
van 18 om 23 UTC tot 19 om 01 UTC
Wind 5 kt uit het oostnoordoosten

TAF: SPQU 181700Z 1818/1918 27007KT CAVOK TX22/1817Z TN10/1910Z BECMG 1823/1901 06005KT

Waarnemingen en weersverwachtingen van meer dan 4000 vliegvelden (METAR en TAF).

De beschikbare stations zijn de gele en rode punten op de kaart.

Ga met uw muis naar het station om de naam te zien.

Klik dan om waarnemingen en weersverwachtingen te zien.

kaart wijzigen: klik op de groene knoppen met een zwart kruis om in te zoomen, op de groene knop met een streepje om uit te zoomen of op de groene pijlen voor aangrenzende kaarten.


METAR-TAF: